createdAt,value
2017-09-23T00:00:14.256Z,1017.47
2017-09-23T00:01:24.520Z,1017.47
2017-09-23T00:02:34.787Z,1017.45
2017-09-23T00:03:45.034Z,1017.45
2017-09-23T00:04:55.329Z,1017.43
2017-09-23T00:06:05.302Z,1017.46
2017-09-23T00:07:15.562Z,1017.42
2017-09-23T00:08:25.807Z,1017.41
2017-09-23T00:09:36.064Z,1017.46
2017-09-23T00:10:46.571Z,1017.47
2017-09-23T00:11:56.508Z,1017.48
2017-09-23T00:13:06.439Z,1017.42
2017-09-23T00:14:16.372Z,1017.43
2017-09-23T00:15:26.312Z,1017.45
2017-09-23T00:16:36.912Z,1017.43
2017-09-23T00:17:47.190Z,1017.45
2017-09-23T00:18:57.442Z,1017.47
2017-09-23T00:20:07.379Z,1017.47
2017-09-23T00:21:17.639Z,1017.49
2017-09-23T00:22:27.821Z,1017.49
2017-09-23T00:23:37.751Z,1017.53
2017-09-23T00:24:47.995Z,1017.52
2017-09-23T00:25:57.928Z,1017.49
2017-09-23T00:27:07.857Z,1017.52
2017-09-23T00:28:18.450Z,1017.47
2017-09-23T00:29:28.714Z,1017.48
2017-09-23T00:30:38.976Z,1017.46
2017-09-23T00:31:49.230Z,1017.48
2017-09-23T00:32:59.160Z,1017.46
2017-09-23T00:34:09.657Z,1017.49
2017-09-23T00:35:19.904Z,1017.46
2017-09-23T00:36:30.162Z,1017.49
2017-09-23T00:37:40.411Z,1017.44
2017-09-23T00:38:50.350Z,1017.44
2017-09-23T00:40:00.862Z,1017.42
2017-09-23T00:41:11.108Z,1017.44
2017-09-23T00:42:20.725Z,1017.42
2017-09-23T00:43:30.649Z,1017.44
2017-09-23T00:44:40.577Z,1017.46
2017-09-23T00:45:51.080Z,1017.44
2017-09-23T00:47:01.357Z,1017.43
2017-09-23T00:48:11.297Z,1017.38
2017-09-23T00:49:20.913Z,1017.38
2017-09-23T00:50:31.172Z,1017.38
2017-09-23T00:51:41.671Z,1017.39
2017-09-23T00:52:51.909Z,1017.36
2017-09-23T00:54:01.526Z,1017.38
2017-09-23T00:55:11.142Z,1017.42
2017-09-23T00:56:21.396Z,1017.43
2017-09-23T00:57:31.954Z,1017.39
2017-09-23T00:58:42.199Z,1017.34
2017-09-23T00:59:52.152Z,1017.35
2017-09-23T01:01:02.090Z,1017.26
2017-09-23T01:02:12.028Z,1017.28
2017-09-23T01:03:22.208Z,1017.26
2017-09-23T01:04:32.458Z,1017.27
2017-09-23T01:05:42.390Z,1017.25
2017-09-23T01:06:52.320Z,1017.21
2017-09-23T01:08:01.939Z,1017.24
2017-09-23T01:09:12.227Z,1017.2
2017-09-23T01:10:22.473Z,1017.26
2017-09-23T01:11:32.419Z,1017.22
2017-09-23T01:12:42.672Z,1017.27
2017-09-23T01:13:52.936Z,1017.32
2017-09-23T01:15:02.817Z,1017.34
2017-09-23T01:16:12.761Z,1017.3
2017-09-23T01:17:23.022Z,1017.35
2017-09-23T01:18:32.962Z,1017.33
2017-09-23T01:19:42.576Z,1017.33
2017-09-23T01:20:53.184Z,1017.33
2017-09-23T01:22:03.428Z,1017.31
2017-09-23T01:23:13.678Z,1017.34
2017-09-23T01:24:23.936Z,1017.34
2017-09-23T01:25:34.183Z,1017.35
2017-09-23T01:26:44.681Z,1017.35
2017-09-23T01:27:54.612Z,1017.33
2017-09-23T01:29:04.868Z,1017.31
2017-09-23T01:30:15.130Z,1017.29
2017-09-23T01:31:25.381Z,1017.25
2017-09-23T01:32:35.976Z,1017.28
2017-09-23T01:33:45.916Z,1017.24
2017-09-23T01:34:56.167Z,1017.21
2017-09-23T01:36:06.418Z,1017.21
2017-09-23T01:37:16.674Z,1017.21
2017-09-23T01:38:27.266Z,1017.2
2017-09-23T01:39:37.209Z,1017.12
2017-09-23T01:40:47.452Z,1017.11
2017-09-23T01:41:57.708Z,1017.09
2017-09-23T01:43:07.950Z,1017.09
2017-09-23T01:44:18.543Z,1017.02
2017-09-23T01:45:28.801Z,1017.06
2017-09-23T01:46:38.746Z,1017.04
2017-09-23T01:47:48.998Z,1017.05
2017-09-23T01:48:58.924Z,1017.07
2017-09-23T01:50:09.422Z,1017.1
2017-09-23T01:51:19.363Z,1017.1
2017-09-23T01:52:29.301Z,1017.05
2017-09-23T01:53:39.551Z,1017.07
2017-09-23T01:54:49.794Z,1017.07
2017-09-23T01:56:00.406Z,1017.01
2017-09-23T01:57:10.664Z,1017.01
2017-09-23T01:58:20.911Z,1017.05
2017-09-23T01:59:31.158Z,1017.09
2017-09-23T02:00:41.409Z,1017.1
2017-09-23T02:01:51.916Z,1017.12
2017-09-23T02:03:02.164Z,1017.13
2017-09-23T02:04:12.410Z,1017.14
2017-09-23T02:05:22.366Z,1017.13
2017-09-23T02:06:32.303Z,1017.12
2017-09-23T02:07:42.876Z,1017.12
2017-09-23T02:08:53.116Z,1017.09
2017-09-23T02:10:03.053Z,1017.12
2017-09-23T02:11:12.984Z,1017.09
2017-09-23T02:12:22.911Z,1017.09
2017-09-23T02:13:33.502Z,1017.1
2017-09-23T02:14:43.443Z,1017.12
2017-09-23T02:15:53.378Z,1017.09
2017-09-23T02:17:03.618Z,1017.07
2017-09-23T02:18:13.875Z,1017.06
2017-09-23T02:19:24.372Z,1017.05
2017-09-23T02:20:34.620Z,1017.01
2017-09-23T02:21:44.865Z,1017.01
2017-09-23T02:22:54.801Z,1017.01
2017-09-23T02:24:05.068Z,1017.07
2017-09-23T02:25:15.658Z,1017.06
2017-09-23T02:26:25.917Z,1017.08
2017-09-23T02:27:36.174Z,1017.12
2017-09-23T02:28:46.103Z,1017.11
2017-09-23T02:29:56.350Z,1017.11
2017-09-23T02:31:06.230Z,1017.08
2017-09-23T02:32:16.167Z,1017.03
2017-09-23T02:33:26.434Z,1017.06
2017-09-23T02:34:36.054Z,1017.08
2017-09-23T02:35:46.314Z,1017.04
2017-09-23T02:36:56.812Z,1017.06
2017-09-23T02:38:07.069Z,1017.06
2017-09-23T02:39:17.328Z,1017.06
2017-09-23T02:40:27.576Z,1017.06
2017-09-23T02:41:37.826Z,1017.07
2017-09-23T02:42:48.334Z,1017.06
2017-09-23T02:43:58.583Z,1017.02
2017-09-23T02:45:08.861Z,1017.02
2017-09-23T02:46:19.127Z,1017.01
2017-09-23T02:47:29.066Z,1016.98
2017-09-23T02:48:39.302Z,1016.97
2017-09-23T02:49:49.236Z,1016.93
2017-09-23T02:50:59.177Z,1016.96
2017-09-23T02:52:08.806Z,1016.94
2017-09-23T02:53:19.047Z,1016.99
2017-09-23T02:54:29.599Z,1016.94
2017-09-23T02:55:39.845Z,1016.95
2017-09-23T02:56:50.093Z,1016.95
2017-09-23T02:58:00.026Z,1016.98
2017-09-23T02:59:10.276Z,1016.96
2017-09-23T03:00:20.773Z,1017
2017-09-23T03:01:31.017Z,1016.97
2017-09-23T03:02:41.273Z,1016.96
2017-09-23T03:03:51.523Z,1016.94
2017-09-23T03:05:01.138Z,1016.96
2017-09-23T03:06:11.762Z,1016.96
2017-09-23T03:07:22.011Z,1016.98
2017-09-23T03:08:32.248Z,1016.99
2017-09-23T03:09:42.506Z,1016.99
2017-09-23T03:10:52.762Z,1017
2017-09-23T03:12:02.631Z,1017
2017-09-23T03:13:12.879Z,1017
2017-09-23T03:14:23.125Z,1017.02
2017-09-23T03:15:33.063Z,1017.01
2017-09-23T03:16:43.311Z,1017.07
2017-09-23T03:17:53.915Z,1017.04
2017-09-23T03:19:04.150Z,1017.09
2017-09-23T03:20:14.089Z,1017.1
2017-09-23T03:21:24.013Z,1017.1
2017-09-23T03:22:33.940Z,1017.1
2017-09-23T03:23:44.436Z,1017.14
2017-09-23T03:24:54.370Z,1017.16
2017-09-23T03:26:04.309Z,1017.18
2017-09-23T03:27:14.558Z,1017.18
2017-09-23T03:28:24.491Z,1017.2
2017-09-23T03:29:34.774Z,1017.23
2017-09-23T03:30:45.023Z,1017.25
2017-09-23T03:31:54.962Z,1017.3
2017-09-23T03:33:04.900Z,1017.28
2017-09-23T03:34:15.156Z,1017.3
2017-09-23T03:35:25.078Z,1017.33
2017-09-23T03:36:35.016Z,1017.32
2017-09-23T03:37:44.948Z,1017.36
2017-09-23T03:38:55.197Z,1017.32
2017-09-23T03:40:05.449Z,1017.33
2017-09-23T03:41:15.998Z,1017.35
2017-09-23T03:42:26.248Z,1017.4
2017-09-23T03:43:35.874Z,1017.4
2017-09-23T03:44:46.121Z,1017.42
2017-09-23T03:45:56.050Z,1017.45
2017-09-23T03:47:06.551Z,1017.44
2017-09-23T03:48:16.806Z,1017.49
2017-09-23T03:49:27.085Z,1017.43
2017-09-23T03:50:37.018Z,1017.39
2017-09-23T03:51:47.258Z,1017.42
2017-09-23T03:52:57.751Z,1017.42
2017-09-23T03:54:07.690Z,1017.39
2017-09-23T03:55:17.951Z,1017.39
2017-09-23T03:56:27.882Z,1017.39
2017-09-23T03:57:38.140Z,1017.37
2017-09-23T03:58:48.629Z,1017.38
2017-09-23T03:59:58.883Z,1017.39
2017-09-23T04:01:09.165Z,1017.37
2017-09-23T04:02:18.806Z,1017.37
2017-09-23T04:03:29.054Z,1017.4
2017-09-23T04:04:39.596Z,1017.38
2017-09-23T04:05:49.843Z,1017.36
2017-09-23T04:07:00.094Z,1017.39
2017-09-23T04:08:10.352Z,1017.35
2017-09-23T04:09:20.602Z,1017.33
2017-09-23T04:10:31.090Z,1017.27
2017-09-23T04:11:41.031Z,1017.26
2017-09-23T04:12:50.962Z,1017.27
2017-09-23T04:14:00.886Z,1017.27
2017-09-23T04:15:10.816Z,1017.24
2017-09-23T04:16:21.311Z,1017.27
2017-09-23T04:17:31.556Z,1017.23
2017-09-23T04:18:41.502Z,1017.25
2017-09-23T04:19:51.114Z,1017.25
2017-09-23T04:21:01.054Z,1017.3
2017-09-23T04:22:11.607Z,1017.33
2017-09-23T04:23:21.877Z,1017.32
2017-09-23T04:24:32.123Z,1017.3
2017-09-23T04:25:42.379Z,1017.3
2017-09-23T04:26:52.308Z,1017.29
2017-09-23T04:28:02.811Z,1017.28
2017-09-23T04:29:13.061Z,1017.24
2017-09-23T04:30:23.310Z,1017.3
2017-09-23T04:31:33.579Z,1017.29
2017-09-23T04:32:43.197Z,1017.3
2017-09-23T04:33:53.688Z,1017.27
2017-09-23T04:35:03.931Z,1017.31
2017-09-23T04:36:13.860Z,1017.31
2017-09-23T04:37:24.114Z,1017.26
2017-09-23T04:38:34.366Z,1017.3
2017-09-23T04:39:44.960Z,1017.26
2017-09-23T04:40:55.203Z,1017.22
2017-09-23T04:42:05.138Z,1017.2
2017-09-23T04:43:15.393Z,1017.2
2017-09-23T04:44:25.641Z,1017.19
2017-09-23T04:45:35.825Z,1017.18
2017-09-23T04:46:45.760Z,1017.18
2017-09-23T04:47:55.693Z,1017.2
2017-09-23T04:49:05.940Z,1017.17
2017-09-23T04:50:16.201Z,1017.17
2017-09-23T04:51:26.803Z,1017.15
2017-09-23T04:52:37.061Z,1017.12
2017-09-23T04:53:46.997Z,1017.21
2017-09-23T04:54:57.243Z,1017.2
2017-09-23T04:56:07.180Z,1017.24
2017-09-23T04:57:17.731Z,1017.27
2017-09-23T04:58:27.982Z,1017.23
2017-09-23T04:59:38.249Z,1017.2
2017-09-23T05:00:48.487Z,1017.25
2017-09-23T05:01:58.728Z,1017.21
2017-09-23T05:03:09.326Z,1017.17
2017-09-23T05:04:19.580Z,1017.2
2017-09-23T05:05:29.834Z,1017.23
2017-09-23T05:06:39.761Z,1017.23
2017-09-23T05:07:50.008Z,1017.29
2017-09-23T05:09:00.501Z,1017.26
2017-09-23T05:10:10.758Z,1017.29
2017-09-23T05:11:21.008Z,1017.34
2017-09-23T05:12:31.251Z,1017.33
2017-09-23T05:13:41.494Z,1017.37
2017-09-23T05:14:51.780Z,1017.41
2017-09-23T05:16:02.041Z,1017.46
2017-09-23T05:17:11.976Z,1017.49
2017-09-23T05:18:21.919Z,1017.49
2017-09-23T05:19:32.179Z,1017.52
2017-09-23T05:20:42.727Z,1017.55
2017-09-23T05:21:52.338Z,1017.55
2017-09-23T05:23:02.293Z,1017.62
2017-09-23T05:24:12.222Z,1017.62
2017-09-23T05:25:22.159Z,1017.63
2017-09-23T05:26:32.016Z,1017.59
2017-09-23T05:27:41.354Z,1017.64
2017-09-23T05:28:50.987Z,1017.62
2017-09-23T05:30:01.242Z,1017.61
2017-09-23T05:31:11.189Z,1017.63
2017-09-23T05:32:21.687Z,1017.63
2017-09-23T05:33:31.939Z,1017.67
2017-09-23T05:34:42.192Z,1017.65
2017-09-23T05:35:52.122Z,1017.7
2017-09-23T05:37:02.062Z,1017.69
2017-09-23T05:38:12.662Z,1017.69
2017-09-23T05:39:22.602Z,1017.66
2017-09-23T05:40:32.543Z,1017.64
2017-09-23T05:41:42.472Z,1017.6
2017-09-23T05:42:51.778Z,1017.62
2017-09-23T05:44:02.277Z,1017.6
2017-09-23T05:45:12.537Z,1017.63
2017-09-23T05:46:22.460Z,1017.62
2017-09-23T05:47:32.714Z,1017.61
2017-09-23T05:48:42.958Z,1017.65
2017-09-23T05:49:53.138Z,1017.63
2017-09-23T05:51:02.757Z,1017.66
2017-09-23T05:52:12.699Z,1017.65
2017-09-23T05:53:22.949Z,1017.63
2017-09-23T05:54:33.188Z,1017.58
2017-09-23T05:55:43.741Z,1017.57
2017-09-23T05:56:53.988Z,1017.62
2017-09-23T05:58:04.235Z,1017.59
2017-09-23T05:59:14.487Z,1017.63
2017-09-23T06:00:24.740Z,1017.62
2017-09-23T06:01:34.973Z,1017.66
2017-09-23T06:02:44.902Z,1017.68
2017-09-23T06:03:54.988Z,1017.67
2017-09-23T06:05:05.244Z,1017.68
2017-09-23T06:06:15.498Z,1017.7
2017-09-23T06:07:26.109Z,1017.68
2017-09-23T06:08:36.370Z,1017.7
2017-09-23T06:09:46.619Z,1017.73
2017-09-23T06:10:56.876Z,1017.74
2017-09-23T06:12:07.124Z,1017.84
2017-09-23T06:13:17.433Z,1017.87
2017-09-23T06:14:27.739Z,1017.81
2017-09-23T06:15:37.991Z,1017.88
2017-09-23T06:16:48.252Z,1017.87
2017-09-23T06:17:58.191Z,1017.89
2017-09-23T06:19:08.803Z,1017.88
2017-09-23T06:20:19.056Z,1017.9
2017-09-23T06:21:29.313Z,1017.93
2017-09-23T06:22:39.254Z,1017.93
2017-09-23T06:23:49.513Z,1017.96
2017-09-23T06:24:59.817Z,1017.95
2017-09-23T06:26:09.804Z,1017.95
2017-09-23T06:27:20.064Z,1018
2017-09-23T06:28:30.327Z,1018.02
2017-09-23T06:29:40.573Z,1018
2017-09-23T06:30:51.189Z,1018
2017-09-23T06:32:01.444Z,1018.04
2017-09-23T06:33:11.694Z,1018.01
2017-09-23T06:34:21.946Z,1018.02
2017-09-23T06:35:32.226Z,1018.07
2017-09-23T06:36:42.409Z,1018.06
2017-09-23T06:37:52.675Z,1018.05
2017-09-23T06:39:02.938Z,1018.06
2017-09-23T06:40:13.194Z,1018.07
2017-09-23T06:41:23.458Z,1018.06
2017-09-23T06:42:34.060Z,1018.11
2017-09-23T06:43:44.001Z,1018.09
2017-09-23T06:44:53.929Z,1018.09
2017-09-23T06:46:03.553Z,1018.1
2017-09-23T06:47:13.804Z,1018.15
2017-09-23T06:48:24.014Z,1018.14
2017-09-23T06:49:33.953Z,1018.18
2017-09-23T06:50:43.899Z,1018.14
2017-09-23T06:51:53.520Z,1018.16
2017-09-23T06:53:03.769Z,1018.18
2017-09-23T06:54:14.368Z,1018.17
2017-09-23T06:55:24.634Z,1018.2
2017-09-23T06:56:34.887Z,1018.16
2017-09-23T06:57:45.160Z,1018.16
2017-09-23T06:58:55.411Z,1018.18
2017-09-23T07:00:05.662Z,1018.12
2017-09-23T07:01:15.914Z,1018.17
2017-09-23T07:02:25.848Z,1018.12
2017-09-23T07:03:36.092Z,1018.14
2017-09-23T07:04:46.355Z,1018.14
2017-09-23T07:05:56.648Z,1018.1
2017-09-23T07:07:06.590Z,1018.14
2017-09-23T07:08:16.530Z,1018.15
2017-09-23T07:09:26.477Z,1018.15
2017-09-23T07:10:36.432Z,1018.18
2017-09-23T07:11:46.622Z,1018.21
2017-09-23T07:12:56.570Z,1018.21
2017-09-23T07:14:06.835Z,1018.26
2017-09-23T07:15:16.788Z,1018.27
2017-09-23T07:16:27.055Z,1018.32
2017-09-23T07:17:37.553Z,1018.33
2017-09-23T07:18:47.802Z,1018.36
2017-09-23T07:19:58.054Z,1018.41
2017-09-23T07:21:07.706Z,1018.39
2017-09-23T07:22:17.960Z,1018.37
2017-09-23T07:23:28.464Z,1018.42
2017-09-23T07:24:38.717Z,1018.41
2017-09-23T07:25:48.656Z,1018.39
2017-09-23T07:26:58.600Z,1018.4
2017-09-23T07:28:08.545Z,1018.41
2017-09-23T07:29:19.150Z,1018.44
2017-09-23T07:30:29.409Z,1018.43
2017-09-23T07:31:39.660Z,1018.46
2017-09-23T07:32:49.908Z,1018.44
2017-09-23T07:34:00.168Z,1018.36
2017-09-23T07:35:10.784Z,1018.37
2017-09-23T07:36:20.732Z,1018.39
2017-09-23T07:37:30.993Z,1018.34
2017-09-23T07:38:41.081Z,1018.39
2017-09-23T07:39:51.345Z,1018.38
2017-09-23T07:41:01.859Z,1018.38
2017-09-23T07:42:12.118Z,1018.42
2017-09-23T07:43:22.074Z,1018.4
2017-09-23T07:44:32.328Z,1018.39
2017-09-23T07:45:42.575Z,1018.43
2017-09-23T07:46:53.175Z,1018.43
2017-09-23T07:48:03.436Z,1018.43
2017-09-23T07:49:13.687Z,1018.41
2017-09-23T07:50:23.949Z,1018.41
2017-09-23T07:51:33.581Z,1018.41
2017-09-23T07:52:44.095Z,1018.44
2017-09-23T07:53:54.358Z,1018.41
2017-09-23T07:55:04.306Z,1018.4
2017-09-23T07:56:13.934Z,1018.43
2017-09-23T07:57:24.185Z,1018.43
2017-09-23T07:58:33.760Z,1018.43
2017-09-23T07:59:43.712Z,1018.38
2017-09-23T08:00:53.041Z,1018.39
2017-09-23T08:02:03.298Z,1018.4
2017-09-23T08:03:13.555Z,1018.37
2017-09-23T08:04:23.741Z,1018.39
2017-09-23T08:05:34.004Z,1018.4
2017-09-23T08:06:43.959Z,1018.4
2017-09-23T08:07:54.217Z,1018.38
2017-09-23T08:09:04.149Z,1018.39
2017-09-23T08:10:14.760Z,1018.34
2017-09-23T08:11:25.033Z,1018.38
2017-09-23T08:12:34.975Z,1018.39
2017-09-23T08:13:45.230Z,1018.46
2017-09-23T08:14:55.495Z,1018.5
2017-09-23T08:16:06.073Z,1018.5
2017-09-23T08:17:16.349Z,1018.54
2017-09-23T08:18:26.606Z,1018.51
2017-09-23T08:19:36.553Z,1018.54
2017-09-23T08:20:46.184Z,1018.54
2017-09-23T08:21:56.377Z,1018.52
2017-09-23T08:23:06.649Z,1018.52
2017-09-23T08:24:16.267Z,1018.52
2017-09-23T08:25:26.536Z,1018.54
2017-09-23T08:26:36.818Z,1018.56
2017-09-23T08:27:47.418Z,1018.55
2017-09-23T08:28:57.668Z,1018.56
2017-09-23T08:30:07.938Z,1018.55
2017-09-23T08:31:18.200Z,1018.54
2017-09-23T08:32:28.136Z,1018.58
2017-09-23T08:33:38.329Z,1018.59
2017-09-23T08:34:48.595Z,1018.54
2017-09-23T08:35:58.864Z,1018.52
2017-09-23T08:37:09.137Z,1018.55
2017-09-23T08:38:19.386Z,1018.51
2017-09-23T08:39:29.274Z,1018.53
2017-09-23T08:40:38.908Z,1018.52
2017-09-23T08:41:49.184Z,1018.54
2017-09-23T08:42:59.130Z,1018.56
2017-09-23T08:44:09.068Z,1018.54
2017-09-23T08:45:19.369Z,1018.55
2017-09-23T08:46:29.318Z,1018.53
2017-09-23T08:47:39.269Z,1018.58
2017-09-23T08:48:49.205Z,1018.58
2017-09-23T08:49:59.141Z,1018.54
2017-09-23T08:51:09.429Z,1018.54
2017-09-23T08:52:19.702Z,1018.53
2017-09-23T08:53:29.641Z,1018.5
2017-09-23T08:54:39.587Z,1018.51
2017-09-23T08:55:49.847Z,1018.52
2017-09-23T08:57:00.457Z,1018.53
2017-09-23T08:58:10.399Z,1018.52
2017-09-23T08:59:20.341Z,1018.47
2017-09-23T09:00:30.607Z,1018.49
2017-09-23T09:01:40.238Z,1018.47
2017-09-23T09:02:50.759Z,1018.45
2017-09-23T09:04:01.027Z,1018.44
2017-09-23T09:05:10.961Z,1018.41
2017-09-23T09:06:21.222Z,1018.37
2017-09-23T09:07:31.482Z,1018.36
2017-09-23T09:08:41.998Z,1018.34
2017-09-23T09:09:52.266Z,1018.38
2017-09-23T09:11:01.886Z,1018.37
2017-09-23T09:12:12.151Z,1018.42
2017-09-23T09:13:22.457Z,1018.38
2017-09-23T09:14:33.069Z,1018.36
2017-09-23T09:15:43.325Z,1018.38
2017-09-23T09:16:53.588Z,1018.34
2017-09-23T09:18:03.558Z,1018.3
2017-09-23T09:19:13.825Z,1018.3
2017-09-23T09:20:24.331Z,1018.31
2017-09-23T09:21:34.599Z,1018.37
2017-09-23T09:22:44.855Z,1018.34
2017-09-23T09:23:54.482Z,1018.34
2017-09-23T09:25:04.729Z,1018.39
2017-09-23T09:26:14.984Z,1018.36
2017-09-23T09:27:24.929Z,1018.31
2017-09-23T09:28:35.186Z,1018.29
2017-09-23T09:29:45.123Z,1018.3
2017-09-23T09:30:55.080Z,1018.28
2017-09-23T09:32:05.592Z,1018.32
2017-09-23T09:33:15.539Z,1018.35
2017-09-23T09:34:25.477Z,1018.34
2017-09-23T09:35:35.742Z,1018.36
2017-09-23T09:36:46.001Z,1018.29
2017-09-23T09:37:56.560Z,1018.3
2017-09-23T09:39:06.514Z,1018.28
2017-09-23T09:40:16.445Z,1018.27
2017-09-23T09:41:26.694Z,1018.28
2017-09-23T09:42:36.960Z,1018.3
2017-09-23T09:43:47.162Z,1018.24
2017-09-23T09:44:57.445Z,1018.26
2017-09-23T09:46:07.408Z,1018.28
2017-09-23T09:47:17.679Z,1018.3
2017-09-23T09:48:27.924Z,1018.29
2017-09-23T09:49:38.122Z,1018.26
2017-09-23T09:50:48.388Z,1018.25
2017-09-23T09:51:58.332Z,1018.22
2017-09-23T09:53:07.966Z,1018.22
2017-09-23T09:54:17.901Z,1018.22
2017-09-23T09:55:28.420Z,1018.22
2017-09-23T09:56:38.684Z,1018.21
2017-09-23T09:57:48.964Z,1018.23
2017-09-23T09:58:59.229Z,1018.2
2017-09-23T10:00:09.487Z,1018.23
2017-09-23T10:01:19.738Z,1018.21
2017-09-23T10:02:30.005Z,1018.2
2017-09-23T10:03:39.960Z,1018.2
2017-09-23T10:04:49.586Z,1018.21
2017-09-23T10:05:59.843Z,1018.23
2017-09-23T10:07:10.044Z,1018.2
2017-09-23T10:08:20.306Z,1018.25
2017-09-23T10:09:30.582Z,1018.22
2017-09-23T10:10:40.536Z,1018.21
2017-09-23T10:11:50.808Z,1018.24
2017-09-23T10:13:01.021Z,1018.27
2017-09-23T10:14:10.965Z,1018.26
2017-09-23T10:15:20.919Z,1018.3
2017-09-23T10:16:31.185Z,1018.26
2017-09-23T10:17:41.451Z,1018.27
2017-09-23T10:18:52.007Z,1018.27
2017-09-23T10:20:02.267Z,1018.24
2017-09-23T10:21:12.526Z,1018.25
2017-09-23T10:22:22.230Z,1018.19
2017-09-23T10:23:32.480Z,1018.21
2017-09-23T10:24:42.684Z,1018.18
2017-09-23T10:25:52.974Z,1018.26
2017-09-23T10:27:02.929Z,1018.25
2017-09-23T10:28:13.204Z,1018.2
2017-09-23T10:29:23.482Z,1018.21
2017-09-23T10:30:34.008Z,1018.18
2017-09-23T10:31:44.285Z,1018.13
2017-09-23T10:32:54.231Z,1018.16
2017-09-23T10:34:04.511Z,1018.13
2017-09-23T10:35:14.802Z,1018.16
2017-09-23T10:36:25.318Z,1018.16
2017-09-23T10:37:35.584Z,1018.19
2017-09-23T10:38:45.854Z,1018.24
2017-09-23T10:39:55.794Z,1018.2
2017-09-23T10:41:05.748Z,1018.18
2017-09-23T10:42:15.956Z,1018.17
2017-09-23T10:43:26.214Z,1018.13
2017-09-23T10:44:36.155Z,1018.06
2017-09-23T10:45:46.145Z,1018.04
2017-09-23T10:46:56.408Z,1018.08
2017-09-23T10:48:06.925Z,1018.06
2017-09-23T10:49:17.201Z,1018.06
2017-09-23T10:50:27.164Z,1018
2017-09-23T10:51:37.429Z,1017.97
2017-09-23T10:52:47.389Z,1017.96
2017-09-23T10:53:57.585Z,1017.94
2017-09-23T10:55:07.222Z,1017.97
2017-09-23T10:56:17.492Z,1017.94
2017-09-23T10:57:27.752Z,1017.99
2017-09-23T10:58:38.032Z,1017.96
2017-09-23T10:59:48.551Z,1017.97
2017-09-23T11:00:58.498Z,1017.92
2017-09-23T11:02:08.676Z,1017.87
2017-09-23T11:03:18.622Z,1017.85
2017-09-23T11:04:28.889Z,1017.85
2017-09-23T11:05:38.778Z,1017.81
2017-09-23T11:06:48.728Z,1017.79
2017-09-23T11:07:59.010Z,1017.74
2017-09-23T11:09:09.268Z,1017.74
2017-09-23T11:10:19.555Z,1017.72
2017-09-23T11:11:29.770Z,1017.73
2017-09-23T11:12:40.036Z,1017.72
2017-09-23T11:13:50.319Z,1017.76
2017-09-23T11:15:00.583Z,1017.78
2017-09-23T11:16:10.845Z,1017.74
2017-09-23T11:17:21.378Z,1017.76
2017-09-23T11:18:31.325Z,1017.76
2017-09-23T11:19:41.266Z,1017.73
2017-09-23T11:20:51.529Z,1017.73
2017-09-23T11:22:01.796Z,1017.72
2017-09-23T11:23:12.298Z,1017.69
2017-09-23T11:24:22.261Z,1017.73
2017-09-23T11:25:32.521Z,1017.72
2017-09-23T11:26:42.786Z,1017.73
2017-09-23T11:27:52.733Z,1017.65
2017-09-23T11:29:02.929Z,1017.63
2017-09-23T11:30:13.184Z,1017.69
2017-09-23T11:31:22.830Z,1017.71
2017-09-23T11:32:32.780Z,1017.65
2017-09-23T11:33:42.723Z,1017.67
2017-09-23T11:34:53.234Z,1017.67
2017-09-23T11:36:03.188Z,1017.67
2017-09-23T11:37:13.126Z,1017.67
2017-09-23T11:38:23.414Z,1017.69
2017-09-23T11:39:33.685Z,1017.64
2017-09-23T11:40:43.613Z,1017.62
2017-09-23T11:41:53.556Z,1017.59
2017-09-23T11:43:03.498Z,1017.57
2017-09-23T11:44:13.126Z,1017.57
2017-09-23T11:45:23.396Z,1017.51
2017-09-23T11:46:33.929Z,1017.52
2017-09-23T11:47:43.875Z,1017.52
2017-09-23T11:48:53.828Z,1017.52
2017-09-23T11:50:04.092Z,1017.51
2017-09-23T11:51:14.043Z,1017.52
2017-09-23T11:52:24.563Z,1017.53
2017-09-23T11:53:34.822Z,1017.56
2017-09-23T11:54:45.094Z,1017.53
2017-09-23T11:55:55.032Z,1017.55
2017-09-23T11:57:05.286Z,1017.49
2017-09-23T11:58:15.817Z,1017.45
2017-09-23T11:59:26.082Z,1017.44
2017-09-23T12:00:36.029Z,1017.47
2017-09-23T12:01:46.303Z,1017.46
2017-09-23T12:02:56.250Z,1017.44
2017-09-23T12:04:06.818Z,1017.45
2017-09-23T12:05:17.090Z,1017.47
2017-09-23T12:06:27.344Z,1017.45
2017-09-23T12:07:37.592Z,1017.43
2017-09-23T12:08:47.544Z,1017.43
2017-09-23T12:09:58.062Z,1017.37
2017-09-23T12:11:08.015Z,1017.39
2017-09-23T12:12:17.972Z,1017.32
2017-09-23T12:13:27.927Z,1017.4
2017-09-23T12:14:38.211Z,1017.43
2017-09-23T12:15:48.417Z,1017.42
2017-09-23T12:16:58.698Z,1017.46
2017-09-23T12:18:08.968Z,1017.45
2017-09-23T12:19:19.229Z,1017.47
2017-09-23T12:20:29.180Z,1017.42
2017-09-23T12:21:39.713Z,1017.4
2017-09-23T12:22:49.980Z,1017.4
2017-09-23T12:23:59.605Z,1017.43
2017-09-23T12:25:09.858Z,1017.46
2017-09-23T12:26:19.799Z,1017.48
2017-09-23T12:27:30.001Z,1017.5
2017-09-23T12:28:40.265Z,1017.49
2017-09-23T12:29:50.528Z,1017.46
2017-09-23T12:31:00.795Z,1017.48
2017-09-23T12:32:10.747Z,1017.52
2017-09-23T12:33:21.268Z,1017.51
2017-09-23T12:34:31.524Z,1017.52
2017-09-23T12:35:41.480Z,1017.54
2017-09-23T12:36:51.741Z,1017.55
2017-09-23T12:38:02.021Z,1017.52
2017-09-23T12:39:12.580Z,1017.49
2017-09-23T12:40:22.841Z,1017.51
2017-09-23T12:41:33.097Z,1017.53
2017-09-23T12:42:42.721Z,1017.55
2017-09-23T12:43:52.653Z,1017.51
2017-09-23T12:45:03.164Z,1017.55
2017-09-23T12:46:13.417Z,1017.53
2017-09-23T12:47:23.666Z,1017.56
2017-09-23T12:48:33.932Z,1017.55
2017-09-23T12:49:44.238Z,1017.54
2017-09-23T12:50:54.121Z,1017.49
2017-09-23T12:52:04.381Z,1017.55
2017-09-23T12:53:14.652Z,1017.48
2017-09-23T12:54:24.919Z,1017.48
2017-09-23T12:55:35.200Z,1017.42
2017-09-23T12:56:45.759Z,1017.45
2017-09-23T12:57:55.381Z,1017.47
2017-09-23T12:59:05.673Z,1017.43
2017-09-23T13:00:15.607Z,1017.39
2017-09-23T13:01:25.873Z,1017.43
2017-09-23T13:02:36.086Z,1017.41
2017-09-23T13:03:45.723Z,1017.43
2017-09-23T13:04:55.345Z,1017.4
2017-09-23T13:06:05.613Z,1017.37
2017-09-23T13:07:15.886Z,1017.33
2017-09-23T13:08:26.101Z,1017.28
2017-09-23T13:09:36.030Z,1017.34
2017-09-23T13:10:46.294Z,1017.31
2017-09-23T13:11:56.258Z,1017.33
2017-09-23T13:13:06.514Z,1017.36
2017-09-23T13:14:16.383Z,1017.37
2017-09-23T13:15:26.643Z,1017.42
2017-09-23T13:16:36.904Z,1017.43
2017-09-23T13:17:46.842Z,1017.38
2017-09-23T13:18:56.775Z,1017.38
2017-09-23T13:20:07.290Z,1017.36
2017-09-23T13:21:17.570Z,1017.37
2017-09-23T13:22:27.197Z,1017.4
2017-09-23T13:23:37.148Z,1017.4
2017-09-23T13:24:47.437Z,1017.4
2017-09-23T13:25:57.944Z,1017.45
2017-09-23T13:27:08.223Z,1017.41
2017-09-23T13:28:18.495Z,1017.44
2017-09-23T13:29:28.451Z,1017.43
2017-09-23T13:30:38.393Z,1017.44
2017-09-23T13:31:48.974Z,1017.47
2017-09-23T13:32:59.223Z,1017.44
2017-09-23T13:34:09.162Z,1017.43
2017-09-23T13:35:19.433Z,1017.43
2017-09-23T13:36:29.700Z,1017.39
2017-09-23T13:37:40.251Z,1017.34
2017-09-23T13:38:50.514Z,1017.35
2017-09-23T13:40:00.764Z,1017.31
2017-09-23T13:41:10.731Z,1017.29
2017-09-23T13:42:20.668Z,1017.26
2017-09-23T13:43:31.176Z,1017.23
2017-09-23T13:44:41.441Z,1017.24
2017-09-23T13:45:51.409Z,1017.24
2017-09-23T13:47:01.353Z,1017.23
2017-09-23T13:48:11.309Z,1017.22
2017-09-23T13:49:21.855Z,1017.18
2017-09-23T13:50:32.132Z,1017.2
2017-09-23T13:51:42.386Z,1017.15
2017-09-23T13:52:52.331Z,1017.13
2017-09-23T13:54:02.588Z,1017.13
2017-09-23T13:55:13.110Z,1017.11
2017-09-23T13:56:23.059Z,1017.09
2017-09-23T13:57:33.304Z,1017.11
2017-09-23T13:58:43.255Z,1017.11
2017-09-23T13:59:53.524Z,1017.1
2017-09-23T14:01:03.412Z,1017.08
2017-09-23T14:02:13.353Z,1017.04
2017-09-23T14:03:23.292Z,1017.11
2017-09-23T14:04:33.231Z,1017.1
2017-09-23T14:05:43.500Z,1017.14
2017-09-23T14:06:54.012Z,1017.09
2017-09-23T14:08:04.262Z,1017.1
2017-09-23T14:09:14.522Z,1017.14
2017-09-23T14:10:24.781Z,1017.13
2017-09-23T14:11:34.742Z,1017.14